Time;durP1;ratioP1;P1;durP2;ratioP2;P2;SDS_P1;SDS_P2;PMS_P1;PMS_P2;Temp;Humidity;BMP_temperature;BMP_pressure;BME280_temperature;BME280_humidity;BME280_pressure;Samples;Min_cycle;Max_cycle;Signal;HPM_P1;HPM_P2
2024/01/21 00:00:41;;;;;;;5.18;3.75;;;;;;;18.74;37.66;102868.28;5026231;28;20500;-56
2024/01/21 00:03:09;;;;;;;4.78;3.20;;;;;;;18.74;37.67;102857.53;5028985;28;20045;-56
2024/01/21 00:05:37;;;;;;;6.07;3.80;;;;;;;18.73;37.64;102850.47;5027311;28;20064;-54
2024/01/21 00:08:04;;;;;;;4.25;3.25;;;;;;;18.73;37.45;102847.78;5026057;28;20068;-61
2024/01/21 00:10:32;;;;;;;5.03;3.28;;;;;;;18.73;37.55;102850.47;5026130;28;20440;-61
2024/01/21 00:12:59;;;;;;;4.43;3.22;;;;;;;18.72;37.41;102850.53;5028171;28;20049;-60
2024/01/21 00:15:26;;;;;;;4.40;3.35;;;;;;;18.73;37.56;102844.22;5028094;28;20068;-58
2024/01/21 00:17:54;;;;;;;5.22;3.15;;;;;;;18.75;37.48;102842.31;5026306;28;20049;-61
2024/01/21 00:20:21;;;;;;;4.82;3.42;;;;;;;18.75;37.52;102836.94;5025768;28;20093;-62
2024/01/21 00:22:48;;;;;;;4.32;3.38;;;;;;;18.73;37.43;102834.34;5028237;28;20053;-58
2024/01/21 00:25:16;;;;;;;4.85;3.50;;;;;;;18.74;37.43;102840.59;5027917;28;20514;-58
2024/01/21 00:27:43;;;;;;;4.20;3.40;;;;;;;18.72;37.59;102842.50;5025816;28;20049;-59
2024/01/21 00:30:11;;;;;;;5.43;3.38;;;;;;;18.70;37.51;102845.25;5024090;28;20057;-58
2024/01/21 00:32:38;;;;;;;4.53;3.28;;;;;;;18.71;37.45;102854.16;5027880;28;20403;-58
2024/01/21 00:35:06;;;;;;;5.72;3.90;;;;;;;18.70;37.38;102858.66;5024347;28;20061;-58
2024/01/21 00:37:34;;;;;;;5.20;3.60;;;;;;;18.70;37.31;102855.09;5027332;28;20042;-61
2024/01/21 00:40:01;;;;;;;4.80;3.25;;;;;;;18.67;37.21;102850.72;5025382;28;20041;-61
2024/01/21 00:42:29;;;;;;;5.50;3.10;;;;;;;18.67;37.37;102861.44;5028196;28;20060;-62
2024/01/21 00:44:56;;;;;;;4.63;3.28;;;;;;;18.67;37.35;102860.59;5018005;28;20065;-62
2024/01/21 00:47:24;;;;;;;4.93;3.28;;;;;;;18.66;37.34;102856.19;5024595;28;20034;-59
2024/01/21 00:49:51;;;;;;;4.40;3.28;;;;;;;18.65;37.20;102858.00;5025720;28;20048;-58
2024/01/21 00:52:19;;;;;;;4.85;3.47;;;;;;;18.65;37.24;102871.41;5028406;28;20415;-58
2024/01/21 00:54:46;;;;;;;5.38;2.88;;;;;;;18.65;37.23;102875.91;5028337;28;20053;-58
2024/01/21 00:57:13;;;;;;;4.35;3.00;;;;;;;18.63;37.16;102875.97;5026108;28;20045;-61
2024/01/21 00:59:42;;;;;;;4.13;2.75;;;;;;;18.62;37.34;102876.91;5024242;28;20042;-62
2024/01/21 01:02:10;;;;;;;4.93;2.75;;;;;;;18.62;37.19;102873.38;5028462;28;20045;-58
2024/01/21 01:04:37;;;;;;;5.75;3.15;;;;;;;18.61;37.28;102879.69;5028108;28;20060;-58
2024/01/21 01:07:05;;;;;;;4.10;3.00;;;;;;;18.60;37.40;102886.88;5025708;28;20041;-58
2024/01/21 01:09:32;;;;;;;4.32;2.50;;;;;;;18.59;37.25;102881.56;5025461;28;20042;-58
2024/01/21 01:11:59;;;;;;;5.60;3.30;;;;;;;18.59;36.98;102877.06;5028114;28;20048;-58
2024/01/21 01:14:27;;;;;;;4.63;3.00;;;;;;;18.58;37.10;102880.69;5027833;28;20055;-58
2024/01/21 01:16:54;;;;;;;4.60;3.25;;;;;;;18.58;37.26;102869.97;5025942;28;20049;-61
2024/01/21 01:19:22;;;;;;;4.25;3.13;;;;;;;18.58;37.18;102863.75;5026220;28;20058;-61
2024/01/21 01:21:50;;;;;;;4.30;2.80;;;;;;;18.56;37.16;102862.97;5027736;28;20050;-62
2024/01/21 01:24:19;;;;;;;4.82;3.30;;;;;;;18.55;37.26;102856.72;5028191;28;20052;-62
2024/01/21 01:26:47;;;;;;;4.68;3.15;;;;;;;18.56;37.29;102860.28;5025705;28;20045;-62
2024/01/21 01:29:15;;;;;;;4.60;2.80;;;;;;;18.56;37.26;102861.16;5025793;28;20046;-58
2024/01/21 01:31:42;;;;;;;4.90;3.25;;;;;;;18.55;37.31;102870.13;5028335;28;20101;-58
2024/01/21 01:34:11;;;;;;;5.38;3.20;;;;;;;18.54;37.18;102876.44;5030517;28;20041;-58
2024/01/21 01:36:39;;;;;;;3.35;2.70;;;;;;;18.53;37.32;102874.72;5029058;28;20041;-58
2024/01/21 01:39:09;;;;;;;4.82;2.90;;;;;;;18.53;37.28;102877.41;5029664;28;20060;-61
2024/01/21 01:41:37;;;;;;;4.07;2.85;;;;;;;18.52;37.29;102857.75;5031888;28;20045;-62
2024/01/21 01:44:04;;;;;;;4.55;2.88;;;;;;;18.52;37.36;102848.84;5031397;28;20050;-62
2024/01/21 01:46:32;;;;;;;4.93;2.75;;;;;;;18.53;37.35;102855.94;5016743;28;20042;-62
2024/01/21 01:48:59;;;;;;;3.60;2.60;;;;;;;18.52;37.49;102855.06;5030827;28;20048;-59
2024/01/21 01:51:27;;;;;;;4.35;3.05;;;;;;;18.52;37.36;102856.88;5031746;28;20078;-59
2024/01/21 01:53:54;;;;;;;4.68;3.10;;;;;;;18.52;37.60;102851.53;5031518;28;20057;-58
2024/01/21 01:56:22;;;;;;;3.47;2.55;;;;;;;18.50;37.58;102840.84;5028873;28;20049;-59
2024/01/21 01:58:51;;;;;;;4.22;3.03;;;;;;;18.50;37.64;102830.13;5030410;28;20042;-58
2024/01/21 02:01:19;;;;;;;4.15;2.80;;;;;;;18.50;37.61;102831.94;5031540;28;20053;-58
2024/01/21 02:03:46;;;;;;;5.10;3.15;;;;;;;18.48;37.33;102821.31;5031310;28;20387;-58
2024/01/21 02:06:15;;;;;;;4.20;2.75;;;;;;;18.48;37.36;102818.63;5027676;28;20053;-58
2024/01/21 02:08:42;;;;;;;5.07;3.08;;;;;;;18.47;37.48;102826.72;5030218;28;20068;-59
2024/01/21 02:11:10;;;;;;;3.85;2.65;;;;;;;18.46;37.41;102819.63;5031806;28;20053;-58
2024/01/21 02:13:37;;;;;;;4.10;2.55;;;;;;;18.45;37.51;102816.09;5031583;28;20121;-59
2024/01/21 02:16:05;;;;;;;5.35;2.78;;;;;;;18.45;37.24;102813.41;5028603;28;20051;-58
2024/01/21 02:18:36;;;;;;;5.03;3.05;;;;;;;18.44;37.28;102813.50;5030520;28;20049;-61
2024/01/21 02:21:04;;;;;;;4.47;2.55;;;;;;;18.44;37.33;102811.69;5023357;28;20056;-62
2024/01/21 02:23:31;;;;;;;3.88;2.78;;;;;;;18.43;37.26;102809.06;5030900;28;20052;-62
2024/01/21 02:25:59;;;;;;;4.30;2.78;;;;;;;18.43;37.36;102815.31;5027349;28;20050;-62
2024/01/21 02:28:26;;;;;;;4.53;3.03;;;;;;;18.43;37.33;102814.41;5030754;28;20112;-60
2024/01/21 02:30:53;;;;;;;3.75;2.28;;;;;;;18.42;37.26;102821.59;5030880;28;20062;-62
2024/01/21 02:33:21;;;;;;;3.90;2.70;;;;;;;18.42;37.27;102824.28;5027934;28;20400;-62
2024/01/21 02:35:48;;;;;;;3.90;2.88;;;;;;;18.42;37.27;102823.41;5031318;28;20042;-62
2024/01/21 02:38:16;;;;;;;3.97;2.55;;;;;;;18.42;37.21;102829.66;5030382;28;20052;-62
2024/01/21 02:40:43;;;;;;;3.55;2.55;;;;;;;18.42;37.29;102836.81;5030598;28;20046;-61
2024/01/21 02:43:10;;;;;;;4.55;2.83;;;;;;;18.41;37.37;102841.31;5031061;28;20046;-61
2024/01/21 02:45:38;;;;;;;4.05;2.47;;;;;;;18.40;37.43;102823.50;5026463;28;20048;-58
2024/01/21 02:48:05;;;;;;;4.30;2.80;;;;;;;18.40;37.34;102822.66;5021650;28;20409;-60
2024/01/21 02:50:33;;;;;;;4.60;2.83;;;;;;;18.40;37.36;102830.69;5031201;28;20515;-61
2024/01/21 02:53:00;;;;;;;3.47;2.25;;;;;;;18.38;37.50;102833.44;5030690;28;20045;-62
2024/01/21 02:55:27;;;;;;;3.72;2.13;;;;;;;18.38;37.35;102821.84;5027751;28;20053;-62
2024/01/21 02:57:55;;;;;;;4.22;2.60;;;;;;;18.39;37.28;102818.19;5030146;28;20056;-59
2024/01/21 03:00:22;;;;;;;4.05;2.30;;;;;;;18.38;37.43;102813.78;5030609;28;20053;-62
2024/01/21 03:02:52;;;;;;;4.28;2.47;;;;;;;18.36;37.39;102807.66;5034027;28;20060;-62
2024/01/21 03:05:19;;;;;;;4.03;2.22;;;;;;;18.35;37.29;102801.44;5027379;28;20053;-62
2024/01/21 03:07:47;;;;;;;4.10;2.75;;;;;;;18.36;37.44;102802.28;5029898;28;20068;-61
2024/01/21 03:10:14;;;;;;;4.18;2.38;;;;;;;18.35;37.40;102812.16;5030268;28;20459;-62
2024/01/21 03:12:42;;;;;;;3.65;2.50;;;;;;;18.35;37.53;102805.91;5030437;28;20442;-62
2024/01/21 03:15:09;;;;;;;3.88;2.65;;;;;;;18.35;37.53;102808.56;5027260;28;20041;-62
2024/01/21 03:17:36;;;;;;;3.95;2.60;;;;;;;18.32;37.45;102803.41;5029866;28;20121;-58
2024/01/21 03:20:05;;;;;;;4.13;2.28;;;;;;;18.32;37.54;102809.63;5030107;28;20053;-58
2024/01/21 03:22:33;;;;;;;3.88;2.13;;;;;;;18.32;37.46;102809.63;5030528;28;20064;-59
2024/01/21 03:25:00;;;;;;;4.30;2.75;;;;;;;18.32;37.42;102806.06;5026693;28;20053;-58
2024/01/21 03:27:27;;;;;;;3.45;2.58;;;;;;;18.31;37.41;102809.69;5029523;28;20056;-60
2024/01/21 03:29:55;;;;;;;3.90;2.38;;;;;;;18.31;37.43;102799.84;5030140;28;20484;-62
2024/01/21 03:32:22;;;;;;;3.72;2.08;;;;;;;18.29;37.40;102802.59;5030560;28;20041;-62
2024/01/21 03:34:51;;;;;;;3.53;2.22;;;;;;;18.30;37.47;102808.81;5026234;28;20416;-61
2024/01/21 03:37:19;;;;;;;3.95;2.22;;;;;;;18.28;37.38;102798.19;5033307;28;20041;-58
2024/01/21 03:39:46;;;;;;;3.58;2.00;;;;;;;18.28;37.31;102800.00;5038293;28;20041;-58
2024/01/21 03:42:15;;;;;;;4.18;2.75;;;;;;;18.28;37.38;102806.22;5029944;28;20411;-61
2024/01/21 03:44:42;;;;;;;3.58;1.95;;;;;;;18.28;37.27;102813.41;5028730;28;20061;-62
2024/01/21 03:47:10;;;;;;;4.00;2.65;;;;;;;18.27;37.37;102809.84;5039203;28;20703;-58
2024/01/21 03:49:37;;;;;;;3.05;2.03;;;;;;;18.25;37.19;102811.72;5021371;28;20038;-58
2024/01/21 03:52:05;;;;;;;3.65;2.45;;;;;;;18.27;37.04;102812.53;5030094;28;20049;-58
2024/01/21 03:54:32;;;;;;;3.38;2.28;;;;;;;18.26;37.34;102813.47;5026571;28;20105;-58
2024/01/21 03:56:59;;;;;;;3.22;1.88;;;;;;;18.26;37.47;102815.28;5029772;28;20049;-60
2024/01/21 03:59:27;;;;;;;3.45;2.13;;;;;;;18.26;37.21;102817.94;5030067;28;20049;-62
2024/01/21 04:01:54;;;;;;;2.83;1.70;;;;;;;18.24;37.22;102823.41;5028348;28;20054;-62
2024/01/21 04:04:21;;;;;;;3.45;2.05;;;;;;;18.25;37.23;102817.09;5026979;28;20473;-62
2024/01/21 04:06:49;;;;;;;3.08;2.05;;;;;;;18.24;37.33;102810.00;5029583;28;20052;-59
2024/01/21 04:09:22;;;;;;;4.05;2.42;;;;;;;18.24;37.43;102799.28;5028247;28;20475;-61
2024/01/21 04:11:50;;;;;;;3.17;1.98;;;;;;;18.25;37.43;102802.81;5030084;28;20488;-62
2024/01/21 04:14:17;;;;;;;3.33;1.77;;;;;;;18.24;37.41;102799.28;5026395;28;20045;-58
2024/01/21 04:16:44;;;;;;;3.60;2.15;;;;;;;18.23;37.36;102797.53;5029890;28;20514;-58
2024/01/21 04:19:12;;;;;;;2.63;1.70;;;;;;;18.22;37.42;102811.88;5030334;28;20065;-58
2024/01/21 04:21:40;;;;;;;4.43;2.28;;;;;;;18.22;37.49;102806.50;5029853;28;20376;-59
2024/01/21 04:24:08;;;;;;;3.75;2.05;;;;;;;18.21;37.51;102801.25;5026544;28;20152;-58
2024/01/21 04:26:35;;;;;;;2.72;1.83;;;;;;;18.22;37.44;102809.19;5029586;28;20054;-58
2024/01/21 04:29:03;;;;;;;3.38;1.52;;;;;;;18.20;37.47;102800.38;5029747;28;20049;-61
2024/01/21 04:31:30;;;;;;;3.25;1.73;;;;;;;18.20;37.40;102804.88;5029069;28;20056;-62
2024/01/21 04:33:57;;;;;;;2.50;1.80;;;;;;;18.20;37.34;102796.84;5025158;28;20092;-62
2024/01/21 04:36:25;;;;;;;3.20;1.95;;;;;;;18.18;37.50;102796.88;5029373;28;20044;-62
2024/01/21 04:38:53;;;;;;;2.78;1.50;;;;;;;18.19;37.40;102811.16;5029700;28;20109;-59
2024/01/21 04:41:21;;;;;;;4.18;2.15;;;;;;;18.17;37.44;102803.19;5029876;28;20491;-59
2024/01/21 04:43:48;;;;;;;3.22;1.73;;;;;;;18.17;37.38;102800.53;5026376;28;20056;-59
2024/01/21 04:46:15;;;;;;;2.75;1.83;;;;;;;18.16;37.36;102801.47;5029202;28;20064;-59
2024/01/21 04:48:43;;;;;;;3.50;1.88;;;;;;;18.17;37.35;102813.91;5024396;28;20038;-59
2024/01/21 04:51:11;;;;;;;3.15;1.92;;;;;;;18.16;37.35;102808.66;5025410;28;20068;-59
2024/01/21 04:53:38;;;;;;;2.58;1.67;;;;;;;18.14;37.32;102808.72;5029085;28;20053;-59
2024/01/21 04:56:06;;;;;;;3.17;1.92;;;;;;;18.14;37.41;102811.38;5029200;28;20045;-62
2024/01/21 04:58:34;;;;;;;2.95;1.92;;;;;;;18.14;37.39;102811.38;5029368;28;20053;-59
2024/01/21 05:01:01;;;;;;;2.72;1.80;;;;;;;18.14;37.38;102814.06;5029228;28;20050;-59
2024/01/21 05:03:28;;;;;;;2.58;1.63;;;;;;;18.14;37.29;102814.06;5029282;28;20049;-58
2024/01/21 05:05:57;;;;;;;5.30;2.30;;;;;;;18.13;37.26;102817.69;5029387;28;20520;-59
2024/01/21 05:08:24;;;;;;;3.40;1.90;;;;;;;18.11;37.25;102819.59;5029802;28;20415;-61
2024/01/21 05:10:52;;;;;;;3.00;1.77;;;;;;;18.12;37.17;102820.47;5028459;28;20488;-62
2024/01/21 05:13:19;;;;;;;2.88;1.65;;;;;;;18.12;37.21;102831.19;5026288;28;20042;-62
2024/01/21 05:15:47;;;;;;;2.72;1.60;;;;;;;18.12;37.25;102820.47;5029347;28;20053;-62
2024/01/21 05:18:15;;;;;;;3.20;1.55;;;;;;;18.11;37.27;102810.66;5029180;28;20045;-59
2024/01/21 05:20:43;;;;;;;2.97;1.98;;;;;;;18.11;37.04;102816.91;5029202;28;20049;-59
2024/01/21 05:23:10;;;;;;;2.70;1.50;;;;;;;18.11;37.42;102816.03;5026783;28;20492;-59
2024/01/21 05:25:38;;;;;;;2.53;1.52;;;;;;;18.10;37.32;102823.19;5029150;28;20045;-59
2024/01/21 05:28:05;;;;;;;3.28;1.88;;;;;;;18.11;37.33;102821.38;5028865;28;20053;-60
2024/01/21 05:30:32;;;;;;;2.55;1.63;;;;;;;18.10;37.37;102823.19;5028935;28;20050;-62
2024/01/21 05:33:00;;;;;;;3.10;1.50;;;;;;;18.11;37.56;102827.66;5025922;28;20042;-62
2024/01/21 05:35:27;;;;;;;2.90;1.95;;;;;;;18.11;37.47;102830.31;5028826;28;20056;-62
2024/01/21 05:37:55;;;;;;;3.60;1.80;;;;;;;18.11;37.53;102833.00;5028859;28;20048;-59
2024/01/21 05:40:22;;;;;;;3.25;1.65;;;;;;;18.10;37.48;102827.69;5029788;28;20048;-59
2024/01/21 05:42:49;;;;;;;2.70;1.70;;;;;;;18.11;37.54;102830.31;5025920;28;20400;-59
2024/01/21 05:45:17;;;;;;;2.40;1.40;;;;;;;18.10;37.53;102825.88;5028878;28;20057;-59
2024/01/21 05:47:44;;;;;;;5.68;2.00;;;;;;;18.11;37.52;102821.38;5029365;28;20502;-61
2024/01/21 05:50:12;;;;;;;2.95;1.40;;;;;;;18.10;37.70;102828.56;5017207;28;20042;-62
2024/01/21 05:52:39;;;;;;;2.78;1.60;;;;;;;18.09;37.54;102832.19;5026085;28;20053;-62
2024/01/21 05:55:07;;;;;;;2.90;1.67;;;;;;;18.09;37.56;102826.84;5029737;28;20056;-63
2024/01/21 05:57:35;;;;;;;2.85;1.83;;;;;;;18.08;37.63;102827.78;5029002;28;20049;-59
2024/01/21 06:00:02;;;;;;;3.90;1.60;;;;;;;18.09;37.59;102829.50;5028893;28;20106;-58
2024/01/21 06:02:38;;;;;;;3.00;1.60;;;;;;;18.08;37.58;102829.59;5034084;28;20068;-58
2024/01/21 06:05:06;;;;;;;3.20;1.73;;;;;;;18.06;37.52;102826.97;5029306;28;20407;-59
2024/01/21 06:07:33;;;;;;;2.28;1.33;;;;;;;18.06;37.51;102826.13;5029280;28;20049;-62
2024/01/21 06:10:01;;;;;;;3.20;1.60;;;;;;;18.05;37.59;102835.97;5028274;28;20049;-62
2024/01/21 06:12:28;;;;;;;3.40;1.88;;;;;;;18.05;37.47;102827.94;5027748;28;20054;-63
2024/01/21 06:14:55;;;;;;;2.20;1.42;;;;;;;18.05;37.43;102830.59;5027508;28;20049;-61
2024/01/21 06:17:23;;;;;;;4.80;1.60;;;;;;;18.05;37.48;102825.25;5029049;28;20049;-58
2024/01/21 06:19:50;;;;;;;4.05;1.70;;;;;;;18.04;37.34;102819.03;5030105;28;20049;-58
2024/01/21 06:22:18;;;;;;;3.35;1.63;;;;;;;18.04;37.47;102824.38;5031428;28;20057;-62
2024/01/21 06:24:45;;;;;;;2.58;1.35;;;;;;;18.03;37.39;102822.66;5032736;28;20475;-62
2024/01/21 06:27:13;;;;;;;3.13;1.80;;;;;;;18.03;37.33;102817.28;5032494;28;20045;-61
2024/01/21 06:29:44;;;;;;;2.75;1.30;;;;;;;18.01;37.30;102819.16;5031836;28;20041;-63
2024/01/21 06:32:12;;;;;;;3.63;1.67;;;;;;;18.00;37.36;102824.63;5030984;28;20049;-62
2024/01/21 06:34:39;;;;;;;2.67;1.77;;;;;;;18.00;37.41;102835.34;5027235;28;20053;-62
2024/01/21 06:37:07;;;;;;;2.45;1.38;;;;;;;18.00;37.14;102833.53;5031377;28;20048;-59
2024/01/21 06:39:34;;;;;;;3.45;1.55;;;;;;;18.00;37.11;102825.47;5030932;28;20045;-59
2024/01/21 06:42:01;;;;;;;2.88;1.42;;;;;;;18.00;37.13;102822.78;5030911;28;20056;-59
2024/01/21 06:44:29;;;;;;;2.60;1.40;;;;;;;17.99;37.17;102829.09;5032437;28;20058;-59
2024/01/21 06:46:56;;;;;;;3.08;1.75;;;;;;;18.00;37.25;102829.97;5042354;28;20040;-61
2024/01/21 06:49:24;;;;;;;2.35;1.20;;;;;;;17.98;37.12;102824.66;5033372;28;20399;-59
2024/01/21 06:51:54;;;;;;;2.58;1.35;;;;;;;17.98;37.35;102830.03;5016957;28;20049;-59
2024/01/21 06:54:22;;;;;;;4.22;1.60;;;;;;;17.97;37.29;102830.13;5032532;28;20048;-58
2024/01/21 06:56:49;;;;;;;2.17;1.23;;;;;;;17.97;37.33;102830.13;5032247;28;20049;-60
2024/01/21 06:59:17;;;;;;;2.97;1.85;;;;;;;17.97;37.33;102832.78;5030869;28;20052;-58
2024/01/21 07:01:44;;;;;;;3.22;1.48;;;;;;;17.96;37.28;102831.06;5031357;28;20057;-58
2024/01/21 07:04:12;;;;;;;3.25;1.45;;;;;;;17.96;37.30;102836.44;5030935;28;20056;-58
2024/01/21 07:06:41;;;;;;;3.05;1.33;;;;;;;17.95;37.30;102840.91;5032032;28;20431;-62
2024/01/21 07:09:09;;;;;;;3.17;1.52;;;;;;;17.95;37.37;102832.00;5031163;28;20089;-58
2024/01/21 07:11:41;;;;;;;2.55;1.23;;;;;;;17.96;37.27;102831.94;5031371;28;20044;-61
2024/01/21 07:14:08;;;;;;;3.35;1.65;;;;;;;17.94;37.23;102836.47;5032513;28;20427;-61
2024/01/21 07:16:37;;;;;;;2.53;1.13;;;;;;;17.94;37.35;102835.63;5032169;28;20052;-58
2024/01/21 07:19:04;;;;;;;3.22;1.40;;;;;;;17.94;37.28;102832.94;5029737;28;20042;-58
2024/01/21 07:21:31;;;;;;;2.30;1.10;;;;;;;17.93;37.26;102832.06;5032116;28;20037;-58
2024/01/21 07:23:59;;;;;;;2.30;1.42;;;;;;;17.93;37.28;102832.06;5031880;28;20049;-58
2024/01/21 07:26:27;;;;;;;3.08;1.65;;;;;;;17.92;37.15;102830.34;5031578;28;20056;-57
2024/01/21 07:28:55;;;;;;;2.35;1.17;;;;;;;17.93;37.26;102833.88;5029410;28;20045;-59
2024/01/21 07:31:23;;;;;;;2.50;1.30;;;;;;;17.92;37.24;102829.47;5019805;28;20491;-59
2024/01/21 07:33:51;;;;;;;3.05;1.30;;;;;;;17.92;37.27;102830.34;5023741;28;20399;-58
2024/01/21 07:36:18;;;;;;;3.90;1.58;;;;;;;17.92;37.22;102832.16;5026603;28;20386;-58
2024/01/21 07:38:45;;;;;;;3.22;1.40;;;;;;;17.90;37.11;102834.88;5045523;28;20045;-58
2024/01/21 07:41:13;;;;;;;2.10;1.08;;;;;;;17.91;37.06;102838.47;5032430;28;20086;-58
2024/01/21 07:43:40;;;;;;;2.10;1.25;;;;;;;17.90;37.16;102840.25;5042298;28;20052;-58
2024/01/21 07:46:08;;;;;;;3.03;1.48;;;;;;;17.90;37.05;102848.28;5035766;28;20054;-58
2024/01/21 07:48:35;;;;;;;3.22;1.50;;;;;;;17.90;37.16;102847.41;5028920;28;20050;-61
2024/01/21 07:51:03;;;;;;;2.72;1.40;;;;;;;17.91;37.08;102849.19;5013798;28;20038;-60
2024/01/21 07:53:30;;;;;;;2.65;1.40;;;;;;;17.89;36.87;102840.34;5029318;28;20052;-61
2024/01/21 07:55:58;;;;;;;1.90;1.08;;;;;;;17.91;36.88;102851.88;5051316;28;20041;-61
2024/01/21 07:58:25;;;;;;;2.97;1.63;;;;;;;17.91;36.92;102849.19;5031390;28;20045;-60
2024/01/21 08:00:52;;;;;;;2.10;1.10;;;;;;;17.90;36.98;102858.13;5020101;28;20052;-61
2024/01/21 08:03:20;;;;;;;2.65;1.45;;;;;;;17.89;37.18;102851.91;5031178;28;20046;-60
2024/01/21 08:05:48;;;;;;;3.05;1.58;;;;;;;17.88;37.23;102846.66;5043836;28;20052;-60
2024/01/21 08:08:15;;;;;;;2.75;1.52;;;;;;;17.87;37.45;102858.31;5049175;28;20056;-61
2024/01/21 08:10:43;;;;;;;2.47;1.33;;;;;;;17.86;37.17;102857.41;5051853;28;20045;-61
2024/01/21 08:13:10;;;;;;;3.30;1.75;;;;;;;17.85;37.24;102854.81;5050906;28;20123;-61
2024/01/21 08:15:38;;;;;;;2.40;1.30;;;;;;;17.85;37.19;102860.19;5051252;28;20502;-61
2024/01/21 08:18:05;;;;;;;2.50;1.30;;;;;;;17.85;37.13;102865.53;5030685;28;20388;-60
2024/01/21 08:20:33;;;;;;;2.83;1.60;;;;;;;17.85;37.05;102860.19;5045432;28;20057;-61
2024/01/21 08:23:01;;;;;;;1.77;0.90;;;;;;;17.86;37.12;102861.91;5040229;28;20388;-61
2024/01/21 08:25:28;;;;;;;2.67;1.40;;;;;;;17.86;37.10;102860.09;5050935;28;20048;-61
2024/01/21 08:27:56;;;;;;;2.35;1.33;;;;;;;17.85;37.04;102861.03;5046577;28;20044;-59
2024/01/21 08:30:23;;;;;;;2.72;1.40;;;;;;;17.87;36.94;102869.03;5030963;28;20105;-59
2024/01/21 08:32:51;;;;;;;2.15;1.40;;;;;;;17.87;36.82;102867.22;5030732;28;20404;-59
2024/01/21 08:35:20;;;;;;;3.00;1.70;;;;;;;17.89;36.75;102864.44;5039374;28;20384;-59
2024/01/21 08:37:49;;;;;;;2.03;1.20;;;;;;;17.91;36.61;102865.25;5048794;28;20057;-59
2024/01/21 08:40:16;;;;;;;2.70;1.45;;;;;;;17.91;36.55;102851.88;5030802;28;20475;-59
2024/01/21 08:42:44;;;;;;;2.83;1.50;;;;;;;17.94;36.53;102857.91;5030441;28;20349;-59
2024/01/21 08:45:12;;;;;;;2.72;1.50;;;;;;;17.94;36.52;102862.41;5030033;28;20053;-61
2024/01/21 08:47:40;;;;;;;2.33;1.20;;;;;;;17.96;36.33;102868.59;5028752;28;20049;-58
2024/01/21 08:50:08;;;;;;;2.42;1.58;;;;;;;17.96;36.37;102858.72;5030352;28;20042;-59
2024/01/21 08:52:35;;;;;;;2.17;1.35;;;;;;;17.97;36.27;102873.00;5023353;28;20046;-59
2024/01/21 08:55:04;;;;;;;2.80;1.52;;;;;;;17.97;36.42;102871.19;5038309;28;20041;-59
2024/01/21 08:57:31;;;;;;;2.85;1.25;;;;;;;17.96;36.17;102865.91;5032616;28;20045;-60
2024/01/21 08:59:59;;;;;;;3.20;1.30;;;;;;;17.96;35.96;102874.81;5031065;28;20068;-61
2024/01/21 09:02:26;;;;;;;3.17;1.67;;;;;;;17.96;35.86;102882.84;5031026;28;20109;-61
2024/01/21 09:04:53;;;;;;;2.90;1.70;;;;;;;17.99;35.93;102881.84;5043569;28;20414;-60
2024/01/21 09:07:21;;;;;;;3.38;1.70;;;;;;;18.00;35.95;102891.63;5032064;28;20053;-59
2024/01/21 09:09:48;;;;;;;3.63;1.33;;;;;;;18.01;36.18;102899.56;5031114;28;20487;-60
2024/01/21 09:12:16;;;;;;;2.75;1.48;;;;;;;18.02;35.36;102898.63;5030461;28;20064;-61
2024/01/21 09:14:43;;;;;;;3.08;1.50;;;;;;;18.02;35.95;102897.75;5043627;28;20110;-61
2024/01/21 09:17:11;;;;;;;3.08;1.60;;;;;;;18.02;35.94;102912.03;5047459;28;20048;-59
2024/01/21 09:19:38;;;;;;;2.15;1.10;;;;;;;18.04;36.32;102917.31;5030671;28;20045;-61
2024/01/21 09:22:06;;;;;;;2.33;1.45;;;;;;;18.04;36.33;102915.50;5030631;28;20052;-61
2024/01/21 09:24:33;;;;;;;3.38;1.95;;;;;;;18.04;36.47;102910.16;5030965;28;20049;-60
2024/01/21 09:27:01;;;;;;;2.88;1.25;;;;;;;18.06;36.42;102911.88;5045270;28;20045;-60
2024/01/21 09:29:28;;;;;;;4.60;1.42;;;;;;;18.06;36.27;102917.25;5031328;28;20391;-61
2024/01/21 09:31:56;;;;;;;3.42;1.55;;;;;;;18.07;36.40;102918.97;5038016;28;20060;-59
2024/01/21 09:34:24;;;;;;;2.17;1.10;;;;;;;18.08;36.30;102915.38;5023856;28;20054;-61
2024/01/21 09:36:52;;;;;;;3.00;1.20;;;;;;;18.06;36.20;102909.19;5045374;28;20049;-59
2024/01/21 09:39:20;;;;;;;2.10;1.30;;;;;;;18.06;36.30;102904.69;5036280;28;20061;-59
2024/01/21 09:41:52;;;;;;;3.38;1.60;;;;;;;18.09;36.23;102906.38;5050337;28;20041;-58
2024/01/21 09:44:24;;;;;;;2.70;1.52;;;;;;;18.09;36.30;102911.75;5047953;28;20511;-59
2024/01/21 09:46:53;;;;;;;3.75;1.48;;;;;;;18.09;36.08;102917.09;5045076;28;20053;-60
2024/01/21 09:49:21;;;;;;;2.20;1.40;;;;;;;18.09;35.91;102922.47;5030750;28;20495;-60
2024/01/21 09:51:50;;;;;;;2.25;1.45;;;;;;;18.09;35.86;102919.78;5030363;28;20042;-58
2024/01/21 09:54:19;;;;;;;3.38;1.50;;;;;;;18.11;35.98;102916.09;5017986;28;20053;-58
2024/01/21 09:56:47;;;;;;;2.97;1.50;;;;;;;18.11;36.05;102915.19;5034213;28;20054;-59
2024/01/21 09:59:16;;;;;;;2.58;1.30;;;;;;;18.10;35.93;102929.56;5034786;28;20049;-61
2024/01/21 10:01:43;;;;;;;2.33;1.23;;;;;;;18.10;35.71;102930.41;5045384;28;20041;-61
2024/01/21 10:04:14;;;;;;;4.38;1.70;;;;;;;18.11;35.75;102933.97;5039155;28;20404;-61
2024/01/21 10:06:43;;;;;;;2.20;1.20;;;;;;;18.11;35.62;102923.25;5034417;28;20057;-58
2024/01/21 10:09:18;;;;;;;3.15;1.45;;;;;;;18.11;35.67;102925.94;5034145;28;20490;-58
2024/01/21 10:11:53;;;;;;;2.83;1.40;;;;;;;18.12;35.78;102919.66;5033045;28;20060;-58
2024/01/21 10:14:21;;;;;;;2.92;1.33;;;;;;;18.11;35.86;102917.88;5032023;28;20045;-58
2024/01/21 10:16:49;;;;;;;3.28;1.25;;;;;;;18.12;35.91;102917.84;5034448;28;20049;-60
2024/01/21 10:19:37;;;;;;;2.13;1.20;;;;;;;18.10;35.95;102917.03;5034930;28;20061;-60
2024/01/21 10:22:15;;;;;;;2.88;1.52;;;;;;;18.12;35.94;102919.66;5032732;28;20038;-55
2024/01/21 10:24:44;;;;;;;3.42;1.45;;;;;;;18.15;35.97;102917.69;5034680;28;20427;-59
2024/01/21 10:27:13;;;;;;;2.25;1.00;;;;;;;18.14;36.13;102915.94;5033980;28;20372;-61
2024/01/21 10:29:43;;;;;;;4.30;1.50;;;;;;;18.14;36.13;102912.38;5034385;28;20523;-62
2024/01/21 10:32:13;;;;;;;5.90;1.55;;;;;;;18.13;36.14;102902.63;5033207;28;20050;-59
2024/01/21 10:34:43;;;;;;;2.38;1.25;;;;;;;18.14;36.07;102904.34;5029432;28;20045;-61
2024/01/21 10:37:14;;;;;;;3.92;1.55;;;;;;;18.12;36.17;102907.09;5033785;28;20057;-62
2024/01/21 10:39:48;;;;;;;2.92;1.30;;;;;;;18.11;36.15;102913.41;5033538;28;20503;-63
2024/01/21 10:42:16;;;;;;;2.63;1.30;;;;;;;18.14;36.06;102909.69;5019808;28;20484;-62
2024/01/21 10:44:45;;;;;;;4.00;1.20;;;;;;;18.16;36.23;102910.50;5033845;28;20368;-60
2024/01/21 10:47:15;;;;;;;2.58;1.52;;;;;;;18.17;36.22;102905.06;5033800;28;20060;-61
2024/01/21 10:49:44;;;;;;;2.65;1.17;;;;;;;18.16;36.26;102902.47;5032398;28;20065;-61
2024/01/21 10:52:14;;;;;;;2.92;1.30;;;;;;;18.14;36.34;102905.22;5033525;28;20423;-61
2024/01/21 10:54:43;;;;;;;3.78;1.50;;;;;;;18.13;36.40;102908.84;5024088;28;20050;-61
2024/01/21 10:57:11;;;;;;;2.88;1.48;;;;;;;18.11;36.33;102893.75;5029288;28;20041;-61
2024/01/21 10:59:39;;;;;;;4.75;1.38;;;;;;;18.10;36.43;102900.06;5031444;28;20061;-60
2024/01/21 11:02:10;;;;;;;2.40;1.23;;;;;;;18.09;36.43;102896.53;5033588;28;20052;-59
2024/01/21 11:04:38;;;;;;;4.07;1.30;;;;;;;18.09;36.50;102895.66;5034117;28;20052;-61
2024/01/21 11:07:06;;;;;;;2.67;1.27;;;;;;;18.08;36.55;102892.13;5033463;28;20037;-61
2024/01/21 11:09:36;;;;;;;3.22;1.35;;;;;;;18.06;36.58;102896.66;5032622;28;20056;-62
2024/01/21 11:12:04;;;;;;;2.55;1.35;;;;;;;18.06;36.53;102899.34;5034039;28;20045;-62
2024/01/21 11:14:33;;;;;;;4.00;1.40;;;;;;;18.08;36.64;102893.94;5033457;28;20049;-63
2024/01/21 11:17:10;;;;;;;3.25;1.33;;;;;;;18.08;36.75;102908.19;5033141;28;20045;-63
2024/01/21 11:19:51;;;;;;;2.80;1.08;;;;;;;18.08;36.86;102899.28;5020044;28;20056;-64
2024/01/21 11:22:22;;;;;;;2.83;1.40;;;;;;;18.07;36.91;102894.84;5033356;28;20042;-63
2024/01/21 11:24:55;;;;;;;4.45;1.40;;;;;;;18.07;36.98;102898.44;5033712;28;20038;-64
2024/01/21 11:27:24;;;;;;;3.22;1.52;;;;;;;18.10;37.12;102897.38;5049209;28;20053;-63